sensor_id;sensor_type;location;lat;lon;timestamp;temperature;humidity
25092;DHT22;13082;52.374;4.946;2023-03-21T00:00:35;9.80;99.90
25092;DHT22;13082;52.374;4.946;2023-03-21T00:03:01;9.90;99.90
25092;DHT22;13082;52.374;4.946;2023-03-21T00:05:27;9.80;99.90
25092;DHT22;13082;52.374;4.946;2023-03-21T00:07:52;9.80;99.90
25092;DHT22;13082;52.374;4.946;2023-03-21T00:10:19;9.80;99.90
25092;DHT22;13082;52.374;4.946;2023-03-21T00:12:45;9.80;99.90
25092;DHT22;13082;52.374;4.946;2023-03-21T00:15:11;9.80;99.90
25092;DHT22;13082;52.374;4.946;2023-03-21T00:17:37;9.80;99.90
25092;DHT22;13082;52.374;4.946;2023-03-21T00:20:05;9.80;99.90
25092;DHT22;13082;52.374;4.946;2023-03-21T00:22:35;9.80;99.90
25092;DHT22;13082;52.374;4.946;2023-03-21T00:25:01;9.80;99.90
25092;DHT22;13082;52.374;4.946;2023-03-21T00:27:27;9.80;99.90
25092;DHT22;13082;52.374;4.946;2023-03-21T00:29:52;9.80;99.90
25092;DHT22;13082;52.374;4.946;2023-03-21T00:32:19;9.80;99.90
25092;DHT22;13082;52.374;4.946;2023-03-21T00:34:45;9.80;99.90
25092;DHT22;13082;52.374;4.946;2023-03-21T00:37:12;9.80;99.90
25092;DHT22;13082;52.374;4.946;2023-03-21T00:39:41;9.80;99.90
25092;DHT22;13082;52.374;4.946;2023-03-21T00:42:08;9.80;99.90
25092;DHT22;13082;52.374;4.946;2023-03-21T00:44:34;9.80;99.90
25092;DHT22;13082;52.374;4.946;2023-03-21T00:47:05;9.80;99.90
25092;DHT22;13082;52.374;4.946;2023-03-21T00:49:31;9.80;99.90
25092;DHT22;13082;52.374;4.946;2023-03-21T00:52:02;9.80;99.90
25092;DHT22;13082;52.374;4.946;2023-03-21T00:54:28;9.80;99.90
25092;DHT22;13082;52.374;4.946;2023-03-21T00:56:53;9.80;99.90
25092;DHT22;13082;52.374;4.946;2023-03-21T00:59:19;9.80;99.90
25092;DHT22;13082;52.374;4.946;2023-03-21T01:01:45;9.80;99.90
25092;DHT22;13082;52.374;4.946;2023-03-21T01:04:12;9.80;99.90
25092;DHT22;13082;52.374;4.946;2023-03-21T01:06:40;9.80;99.90
25092;DHT22;13082;52.374;4.946;2023-03-21T01:09:15;9.80;99.90
25092;DHT22;13082;52.374;4.946;2023-03-21T01:11:41;9.80;99.90
25092;DHT22;13082;52.374;4.946;2023-03-21T01:14:08;9.80;99.90
25092;DHT22;13082;52.374;4.946;2023-03-21T01:16:34;9.80;99.90
25092;DHT22;13082;52.374;4.946;2023-03-21T01:19:01;9.80;99.90
25092;DHT22;13082;52.374;4.946;2023-03-21T01:21:26;9.80;99.90
25092;DHT22;13082;52.374;4.946;2023-03-21T01:23:52;9.80;99.90
25092;DHT22;13082;52.374;4.946;2023-03-21T01:26:18;9.80;99.90
25092;DHT22;13082;52.374;4.946;2023-03-21T01:28:45;9.80;99.90
25092;DHT22;13082;52.374;4.946;2023-03-21T01:31:14;9.80;99.90
25092;DHT22;13082;52.374;4.946;2023-03-21T01:33:41;9.80;99.90
25092;DHT22;13082;52.374;4.946;2023-03-21T01:36:08;9.80;99.90
25092;DHT22;13082;52.374;4.946;2023-03-21T01:38:34;9.80;99.90
25092;DHT22;13082;52.374;4.946;2023-03-21T01:41:01;9.80;99.90
25092;DHT22;13082;52.374;4.946;2023-03-21T01:43:32;9.80;99.90
25092;DHT22;13082;52.374;4.946;2023-03-21T01:48:33;9.80;99.90
25092;DHT22;13082;52.374;4.946;2023-03-21T01:51:00;9.80;99.90
25092;DHT22;13082;52.374;4.946;2023-03-21T01:53:30;9.80;99.90
25092;DHT22;13082;52.374;4.946;2023-03-21T01:56:02;9.80;99.90
25092;DHT22;13082;52.374;4.946;2023-03-21T01:58:31;9.80;99.90
25092;DHT22;13082;52.374;4.946;2023-03-21T02:00:57;9.80;99.90
25092;DHT22;13082;52.374;4.946;2023-03-21T02:03:24;9.80;99.90
25092;DHT22;13082;52.374;4.946;2023-03-21T02:06:02;9.80;99.90
25092;DHT22;13082;52.374;4.946;2023-03-21T02:08:31;9.80;99.90
25092;DHT22;13082;52.374;4.946;2023-03-21T02:10:57;9.80;99.90
25092;DHT22;13082;52.374;4.946;2023-03-21T02:13:23;9.80;99.90
25092;DHT22;13082;52.374;4.946;2023-03-21T02:19:01;9.80;99.90
25092;DHT22;13082;52.374;4.946;2023-03-21T02:24:51;9.80;99.90
25092;DHT22;13082;52.374;4.946;2023-03-21T02:27:21;9.80;99.90
25092;DHT22;13082;52.374;4.946;2023-03-21T02:33:09;9.80;99.90
25092;DHT22;13082;52.374;4.946;2023-03-21T02:38:53;9.80;99.90
25092;DHT22;13082;52.374;4.946;2023-03-21T02:47:12;9.80;99.90
25092;DHT22;13082;52.374;4.946;2023-03-21T02:50:13;9.80;99.90
25092;DHT22;13082;52.374;4.946;2023-03-21T02:52:41;9.80;99.90
25092;DHT22;13082;52.374;4.946;2023-03-21T02:55:12;9.80;99.90
25092;DHT22;13082;52.374;4.946;2023-03-21T02:57:42;9.80;99.90
25092;DHT22;13082;52.374;4.946;2023-03-21T03:00:10;9.80;99.90
25092;DHT22;13082;52.374;4.946;2023-03-21T03:02:37;9.80;99.90
25092;DHT22;13082;52.374;4.946;2023-03-21T03:05:17;9.80;99.90
25092;DHT22;13082;52.374;4.946;2023-03-21T03:10:33;9.80;99.90
25092;DHT22;13082;52.374;4.946;2023-03-21T03:13:09;9.80;99.90
25092;DHT22;13082;52.374;4.946;2023-03-21T03:16:02;9.80;99.90
25092;DHT22;13082;52.374;4.946;2023-03-21T03:18:53;9.80;99.90
25092;DHT22;13082;52.374;4.946;2023-03-21T03:21:22;9.80;99.90
25092;DHT22;13082;52.374;4.946;2023-03-21T03:26:38;9.80;99.90
25092;DHT22;13082;52.374;4.946;2023-03-21T03:29:07;9.80;99.90
25092;DHT22;13082;52.374;4.946;2023-03-21T03:31:40;9.80;99.90
25092;DHT22;13082;52.374;4.946;2023-03-21T03:34:12;9.80;99.90
25092;DHT22;13082;52.374;4.946;2023-03-21T03:36:42;9.80;99.90
25092;DHT22;13082;52.374;4.946;2023-03-21T03:39:11;9.80;99.90
25092;DHT22;13082;52.374;4.946;2023-03-21T03:44:12;9.80;99.90
25092;DHT22;13082;52.374;4.946;2023-03-21T03:46:51;9.80;99.90
25092;DHT22;13082;52.374;4.946;2023-03-21T03:49:23;9.80;99.90
25092;DHT22;13082;52.374;4.946;2023-03-21T03:52:09;9.80;99.90
25092;DHT22;13082;52.374;4.946;2023-03-21T03:54:44;9.80;99.90
25092;DHT22;13082;52.374;4.946;2023-03-21T03:57:11;9.80;99.90
25092;DHT22;13082;52.374;4.946;2023-03-21T03:59:40;9.70;99.90
25092;DHT22;13082;52.374;4.946;2023-03-21T04:02:06;9.70;99.90
25092;DHT22;13082;52.374;4.946;2023-03-21T04:04:32;9.70;99.90
25092;DHT22;13082;52.374;4.946;2023-03-21T04:06:58;9.80;99.90
25092;DHT22;13082;52.374;4.946;2023-03-21T04:09:25;9.80;99.90
25092;DHT22;13082;52.374;4.946;2023-03-21T04:11:53;9.70;99.90
25092;DHT22;13082;52.374;4.946;2023-03-21T04:14:18;9.70;99.90
25092;DHT22;13082;52.374;4.946;2023-03-21T04:16:44;9.70;99.90
25092;DHT22;13082;52.374;4.946;2023-03-21T04:19:11;9.80;99.90
25092;DHT22;13082;52.374;4.946;2023-03-21T04:21:37;9.80;99.90
25092;DHT22;13082;52.374;4.946;2023-03-21T04:24:03;9.80;99.90
25092;DHT22;13082;52.374;4.946;2023-03-21T04:26:29;9.70;99.90
25092;DHT22;13082;52.374;4.946;2023-03-21T04:28:57;9.80;99.90
25092;DHT22;13082;52.374;4.946;2023-03-21T04:31:25;9.70;99.90
25092;DHT22;13082;52.374;4.946;2023-03-21T04:33:56;9.70;99.90
25092;DHT22;13082;52.374;4.946;2023-03-21T04:36:22;9.70;99.90
25092;DHT22;13082;52.374;4.946;2023-03-21T04:38:55;9.70;99.90
25092;DHT22;13082;52.374;4.946;2023-03-21T04:41:26;9.70;99.90
25092;DHT22;13082;52.374;4.946;2023-03-21T04:43:52;9.70;99.90
25092;DHT22;13082;52.374;4.946;2023-03-21T04:46:17;9.70;99.90
25092;DHT22;13082;52.374;4.946;2023-03-21T04:48:43;9.70;99.90
25092;DHT22;13082;52.374;4.946;2023-03-21T04:51:09;9.70;99.90
25092;DHT22;13082;52.374;4.946;2023-03-21T04:53:34;9.70;99.90
25092;DHT22;13082;52.374;4.946;2023-03-21T04:56:00;9.70;99.90
25092;DHT22;13082;52.374;4.946;2023-03-21T04:58:26;9.70;99.90
25092;DHT22;13082;52.374;4.946;2023-03-21T05:00:51;9.70;99.90
25092;DHT22;13082;52.374;4.946;2023-03-21T05:03:18;9.70;99.90
25092;DHT22;13082;52.374;4.946;2023-03-21T05:05:47;9.70;99.90
25092;DHT22;13082;52.374;4.946;2023-03-21T05:08:13;9.70;99.90
25092;DHT22;13082;52.374;4.946;2023-03-21T05:10:39;9.60;99.90
25092;DHT22;13082;52.374;4.946;2023-03-21T05:13:05;9.60;99.90
25092;DHT22;13082;52.374;4.946;2023-03-21T05:15:31;9.60;99.90
25092;DHT22;13082;52.374;4.946;2023-03-21T05:17:56;9.60;99.90
25092;DHT22;13082;52.374;4.946;2023-03-21T05:20:35;9.60;99.90
25092;DHT22;13082;52.374;4.946;2023-03-21T05:23:01;9.60;99.90
25092;DHT22;13082;52.374;4.946;2023-03-21T05:25:26;9.60;99.90
25092;DHT22;13082;52.374;4.946;2023-03-21T05:28:00;9.50;99.90
25092;DHT22;13082;52.374;4.946;2023-03-21T05:30:27;9.60;99.90
25092;DHT22;13082;52.374;4.946;2023-03-21T05:32:53;9.50;99.90
25092;DHT22;13082;52.374;4.946;2023-03-21T05:35:18;9.50;99.90
25092;DHT22;13082;52.374;4.946;2023-03-21T05:37:44;9.50;99.90
25092;DHT22;13082;52.374;4.946;2023-03-21T05:40:10;9.50;99.90
25092;DHT22;13082;52.374;4.946;2023-03-21T05:42:36;9.50;99.90
25092;DHT22;13082;52.374;4.946;2023-03-21T05:45:03;9.50;99.90
25092;DHT22;13082;52.374;4.946;2023-03-21T05:47:29;9.50;99.90
25092;DHT22;13082;52.374;4.946;2023-03-21T05:49:54;9.50;99.90
25092;DHT22;13082;52.374;4.946;2023-03-21T05:52:20;9.50;99.90
25092;DHT22;13082;52.374;4.946;2023-03-21T05:54:46;9.50;99.90
25092;DHT22;13082;52.374;4.946;2023-03-21T05:57:11;9.50;99.90
25092;DHT22;13082;52.374;4.946;2023-03-21T05:59:37;9.50;99.90
25092;DHT22;13082;52.374;4.946;2023-03-21T06:02:03;9.50;99.90
25092;DHT22;13082;52.374;4.946;2023-03-21T06:04:29;9.50;99.90
25092;DHT22;13082;52.374;4.946;2023-03-21T06:06:54;9.50;99.90
25092;DHT22;13082;52.374;4.946;2023-03-21T06:09:21;9.50;99.90
25092;DHT22;13082;52.374;4.946;2023-03-21T06:11:49;9.50;99.90
25092;DHT22;13082;52.374;4.946;2023-03-21T06:14:16;9.50;99.90
25092;DHT22;13082;52.374;4.946;2023-03-21T06:16:42;9.50;99.90
25092;DHT22;13082;52.374;4.946;2023-03-21T06:19:08;9.50;99.90
25092;DHT22;13082;52.374;4.946;2023-03-21T06:21:33;9.50;99.90
25092;DHT22;13082;52.374;4.946;2023-03-21T06:23:59;9.50;99.90
25092;DHT22;13082;52.374;4.946;2023-03-21T06:26:24;9.50;99.90
25092;DHT22;13082;52.374;4.946;2023-03-21T06:28:51;9.50;99.90
25092;DHT22;13082;52.374;4.946;2023-03-21T06:31:17;9.60;99.90
25092;DHT22;13082;52.374;4.946;2023-03-21T06:33:47;9.60;99.90
25092;DHT22;13082;52.374;4.946;2023-03-21T06:36:13;9.60;99.90
25092;DHT22;13082;52.374;4.946;2023-03-21T06:38:38;9.60;99.90
25092;DHT22;13082;52.374;4.946;2023-03-21T06:41:04;9.60;99.90
25092;DHT22;13082;52.374;4.946;2023-03-21T06:43:30;9.50;99.90
25092;DHT22;13082;52.374;4.946;2023-03-21T06:45:57;9.60;99.90
25092;DHT22;13082;52.374;4.946;2023-03-21T06:48:22;9.50;99.90
25092;DHT22;13082;52.374;4.946;2023-03-21T06:50:52;9.60;99.90
25092;DHT22;13082;52.374;4.946;2023-03-21T06:53:19;9.60;99.90
25092;DHT22;13082;52.374;4.946;2023-03-21T06:55:52;9.60;99.90
25092;DHT22;13082;52.374;4.946;2023-03-21T06:58:18;9.60;99.90
25092;DHT22;13082;52.374;4.946;2023-03-21T07:00:43;9.60;99.90
25092;DHT22;13082;52.374;4.946;2023-03-21T07:03:11;9.60;99.90
25092;DHT22;13082;52.374;4.946;2023-03-21T07:05:37;9.60;99.90
25092;DHT22;13082;52.374;4.946;2023-03-21T07:08:03;9.60;99.90
25092;DHT22;13082;52.374;4.946;2023-03-21T07:10:29;9.60;99.90
25092;DHT22;13082;52.374;4.946;2023-03-21T07:12:57;9.60;99.90
25092;DHT22;13082;52.374;4.946;2023-03-21T07:15:23;9.60;99.90
25092;DHT22;13082;52.374;4.946;2023-03-21T07:17:48;9.60;99.90
25092;DHT22;13082;52.374;4.946;2023-03-21T07:20:14;9.60;99.90
25092;DHT22;13082;52.374;4.946;2023-03-21T07:22:40;9.60;99.90
25092;DHT22;13082;52.374;4.946;2023-03-21T07:25:06;9.70;99.90
25092;DHT22;13082;52.374;4.946;2023-03-21T07:27:32;9.70;99.90
25092;DHT22;13082;52.374;4.946;2023-03-21T07:29:58;9.60;99.90
25092;DHT22;13082;52.374;4.946;2023-03-21T07:32:24;9.70;99.90
25092;DHT22;13082;52.374;4.946;2023-03-21T07:34:54;9.70;99.90
25092;DHT22;13082;52.374;4.946;2023-03-21T07:37:20;9.70;99.90
25092;DHT22;13082;52.374;4.946;2023-03-21T07:39:46;9.70;99.90
25092;DHT22;13082;52.374;4.946;2023-03-21T07:42:11;9.70;99.90
25092;DHT22;13082;52.374;4.946;2023-03-21T07:44:37;9.70;99.90
25092;DHT22;13082;52.374;4.946;2023-03-21T07:47:04;9.70;99.90
25092;DHT22;13082;52.374;4.946;2023-03-21T07:49:30;9.70;99.90
25092;DHT22;13082;52.374;4.946;2023-03-21T07:51:56;9.70;99.90
25092;DHT22;13082;52.374;4.946;2023-03-21T07:54:21;9.70;99.90
25092;DHT22;13082;52.374;4.946;2023-03-21T07:56:48;9.70;99.90
25092;DHT22;13082;52.374;4.946;2023-03-21T07:59:13;9.70;99.90
25092;DHT22;13082;52.374;4.946;2023-03-21T08:01:39;9.70;99.90
25092;DHT22;13082;52.374;4.946;2023-03-21T08:04:05;9.70;99.90
25092;DHT22;13082;52.374;4.946;2023-03-21T08:06:31;9.70;99.90
25092;DHT22;13082;52.374;4.946;2023-03-21T08:08:57;9.60;99.90
25092;DHT22;13082;52.374;4.946;2023-03-21T08:11:23;9.70;99.90
25092;DHT22;13082;52.374;4.946;2023-03-21T08:13:49;9.70;99.90
25092;DHT22;13082;52.374;4.946;2023-03-21T08:16:16;9.70;99.90
25092;DHT22;13082;52.374;4.946;2023-03-21T08:18:42;9.70;99.90
25092;DHT22;13082;52.374;4.946;2023-03-21T08:21:07;9.70;99.90
25092;DHT22;13082;52.374;4.946;2023-03-21T08:23:33;9.70;99.90
25092;DHT22;13082;52.374;4.946;2023-03-21T08:25:59;9.70;99.90
25092;DHT22;13082;52.374;4.946;2023-03-21T08:28:25;9.70;99.90
25092;DHT22;13082;52.374;4.946;2023-03-21T08:30:51;9.70;99.90
25092;DHT22;13082;52.374;4.946;2023-03-21T08:33:17;9.70;99.90
25092;DHT22;13082;52.374;4.946;2023-03-21T08:35:43;9.70;99.90
25092;DHT22;13082;52.374;4.946;2023-03-21T08:38:09;9.70;99.90
25092;DHT22;13082;52.374;4.946;2023-03-21T08:40:35;9.70;99.90
25092;DHT22;13082;52.374;4.946;2023-03-21T08:43:01;9.70;99.90
25092;DHT22;13082;52.374;4.946;2023-03-21T08:45:27;9.80;99.90
25092;DHT22;13082;52.374;4.946;2023-03-21T08:47:53;9.80;99.90
25092;DHT22;13082;52.374;4.946;2023-03-21T08:50:21;9.80;99.90
25092;DHT22;13082;52.374;4.946;2023-03-21T08:52:48;9.90;99.90
25092;DHT22;13082;52.374;4.946;2023-03-21T08:55:15;9.90;99.90
25092;DHT22;13082;52.374;4.946;2023-03-21T08:57:41;9.90;99.90
25092;DHT22;13082;52.374;4.946;2023-03-21T09:00:09;9.90;99.90
25092;DHT22;13082;52.374;4.946;2023-03-21T09:02:40;10.00;99.90
25092;DHT22;13082;52.374;4.946;2023-03-21T09:05:06;10.00;99.90
25092;DHT22;13082;52.374;4.946;2023-03-21T09:07:33;10.00;99.90
25092;DHT22;13082;52.374;4.946;2023-03-21T09:10:04;10.00;99.90
25092;DHT22;13082;52.374;4.946;2023-03-21T09:12:31;10.10;99.90
25092;DHT22;13082;52.374;4.946;2023-03-21T09:14:57;10.10;99.90
25092;DHT22;13082;52.374;4.946;2023-03-21T09:17:22;10.10;99.90
25092;DHT22;13082;52.374;4.946;2023-03-21T09:19:48;10.20;99.90
25092;DHT22;13082;52.374;4.946;2023-03-21T09:22:15;10.20;99.90
25092;DHT22;13082;52.374;4.946;2023-03-21T09:24:46;10.20;99.90
25092;DHT22;13082;52.374;4.946;2023-03-21T09:27:15;10.20;99.90
25092;DHT22;13082;52.374;4.946;2023-03-21T09:29:42;10.30;99.90
25092;DHT22;13082;52.374;4.946;2023-03-21T09:32:09;10.30;99.90
25092;DHT22;13082;52.374;4.946;2023-03-21T09:34:37;10.40;99.90
25092;DHT22;13082;52.374;4.946;2023-03-21T09:37:07;10.50;99.90
25092;DHT22;13082;52.374;4.946;2023-03-21T09:39:42;10.50;99.90
25092;DHT22;13082;52.374;4.946;2023-03-21T09:45:09;10.60;99.90
25092;DHT22;13082;52.374;4.946;2023-03-21T09:47:48;10.60;99.90
25092;DHT22;13082;52.374;4.946;2023-03-21T09:50:28;10.70;99.90
25092;DHT22;13082;52.374;4.946;2023-03-21T09:53:00;10.70;99.90
25092;DHT22;13082;52.374;4.946;2023-03-21T09:55:29;10.70;99.90
25092;DHT22;13082;52.374;4.946;2023-03-21T09:58:25;10.80;99.90
25092;DHT22;13082;52.374;4.946;2023-03-21T10:01:05;10.80;99.90
25092;DHT22;13082;52.374;4.946;2023-03-21T10:03:33;10.80;99.90
25092;DHT22;13082;52.374;4.946;2023-03-21T10:06:03;10.90;99.90
25092;DHT22;13082;52.374;4.946;2023-03-21T10:08:35;10.90;99.90
25092;DHT22;13082;52.374;4.946;2023-03-21T10:11:21;10.90;99.90
25092;DHT22;13082;52.374;4.946;2023-03-21T10:13:55;10.90;99.90
25092;DHT22;13082;52.374;4.946;2023-03-21T10:16:41;10.90;99.90
25092;DHT22;13082;52.374;4.946;2023-03-21T10:19:13;10.90;99.90
25092;DHT22;13082;52.374;4.946;2023-03-21T10:21:41;11.00;99.90
25092;DHT22;13082;52.374;4.946;2023-03-21T10:24:13;11.00;99.90
25092;DHT22;13082;52.374;4.946;2023-03-21T10:26:39;11.00;99.90
25092;DHT22;13082;52.374;4.946;2023-03-21T10:29:05;11.00;99.90
25092;DHT22;13082;52.374;4.946;2023-03-21T10:31:32;11.00;99.90
25092;DHT22;13082;52.374;4.946;2023-03-21T10:34:02;11.00;99.90
25092;DHT22;13082;52.374;4.946;2023-03-21T10:36:31;11.10;99.90
25092;DHT22;13082;52.374;4.946;2023-03-21T10:41:48;11.20;99.90
25092;DHT22;13082;52.374;4.946;2023-03-21T10:44:16;11.20;99.90
25092;DHT22;13082;52.374;4.946;2023-03-21T10:46:54;11.20;99.90
25092;DHT22;13082;52.374;4.946;2023-03-21T10:49:20;11.30;99.90
25092;DHT22;13082;52.374;4.946;2023-03-21T10:51:52;11.30;99.90
25092;DHT22;13082;52.374;4.946;2023-03-21T10:54:19;11.30;99.90
25092;DHT22;13082;52.374;4.946;2023-03-21T10:57:05;11.30;99.90
25092;DHT22;13082;52.374;4.946;2023-03-21T10:59:50;11.40;99.90
25092;DHT22;13082;52.374;4.946;2023-03-21T11:02:29;11.40;99.90
25092;DHT22;13082;52.374;4.946;2023-03-21T11:04:56;11.40;99.90
25092;DHT22;13082;52.374;4.946;2023-03-21T11:07:27;11.50;99.90
25092;DHT22;13082;52.374;4.946;2023-03-21T11:09:58;11.50;99.90
25092;DHT22;13082;52.374;4.946;2023-03-21T11:12:36;11.50;99.90
25092;DHT22;13082;52.374;4.946;2023-03-21T11:17:46;11.60;99.90
25092;DHT22;13082;52.374;4.946;2023-03-21T11:20:17;11.60;99.90
25092;DHT22;13082;52.374;4.946;2023-03-21T11:22:44;11.60;99.90
25092;DHT22;13082;52.374;4.946;2023-03-21T11:25:34;11.60;99.90
25092;DHT22;13082;52.374;4.946;2023-03-21T11:28:10;11.60;99.90
25092;DHT22;13082;52.374;4.946;2023-03-21T11:30:36;11.60;99.90
25092;DHT22;13082;52.374;4.946;2023-03-21T11:33:03;11.60;99.90
25092;DHT22;13082;52.374;4.946;2023-03-21T11:35:37;11.70;99.90
25092;DHT22;13082;52.374;4.946;2023-03-21T11:38:04;11.70;99.90
25092;DHT22;13082;52.374;4.946;2023-03-21T11:40:35;11.70;99.90
25092;DHT22;13082;52.374;4.946;2023-03-21T11:45:34;11.80;99.90
25092;DHT22;13082;52.374;4.946;2023-03-21T11:48:13;11.80;99.90
25092;DHT22;13082;52.374;4.946;2023-03-21T11:50:41;11.90;99.90
25092;DHT22;13082;52.374;4.946;2023-03-21T11:56:32;11.90;99.90
25092;DHT22;13082;52.374;4.946;2023-03-21T12:12:45;12.20;99.90
25092;DHT22;13082;52.374;4.946;2023-03-21T12:15:19;12.20;99.90
25092;DHT22;13082;52.374;4.946;2023-03-21T12:17:49;12.30;99.90
25092;DHT22;13082;52.374;4.946;2023-03-21T12:31:28;12.60;99.90
25092;DHT22;13082;52.374;4.946;2023-03-21T12:39:38;12.60;99.90
25092;DHT22;13082;52.374;4.946;2023-03-21T12:45:00;12.70;99.90
25092;DHT22;13082;52.374;4.946;2023-03-21T12:47:29;12.80;99.90
25092;DHT22;13082;52.374;4.946;2023-03-21T12:50:02;12.80;99.90
25092;DHT22;13082;52.374;4.946;2023-03-21T12:52:39;12.90;99.90
25092;DHT22;13082;52.374;4.946;2023-03-21T12:57:38;12.90;99.90
25092;DHT22;13082;52.374;4.946;2023-03-21T13:00:33;12.90;99.90
25092;DHT22;13082;52.374;4.946;2023-03-21T13:03:13;12.90;99.90
25092;DHT22;13082;52.374;4.946;2023-03-21T13:05:49;12.80;99.90
25092;DHT22;13082;52.374;4.946;2023-03-21T13:08:20;12.70;99.90
25092;DHT22;13082;52.374;4.946;2023-03-21T13:10:48;12.70;99.90
25092;DHT22;13082;52.374;4.946;2023-03-21T13:16:11;12.60;99.90
25092;DHT22;13082;52.374;4.946;2023-03-21T13:24:14;12.60;99.90
25092;DHT22;13082;52.374;4.946;2023-03-21T13:26:47;12.60;99.90
25092;DHT22;13082;52.374;4.946;2023-03-21T13:29:27;12.50;99.90
25092;DHT22;13082;52.374;4.946;2023-03-21T13:31:57;12.50;99.90
25092;DHT22;13082;52.374;4.946;2023-03-21T13:34:24;12.50;99.90
25092;DHT22;13082;52.374;4.946;2023-03-21T13:36:51;12.50;99.90
25092;DHT22;13082;52.374;4.946;2023-03-21T13:39:26;12.40;99.90
25092;DHT22;13082;52.374;4.946;2023-03-21T13:41:53;12.40;99.90
25092;DHT22;13082;52.374;4.946;2023-03-21T13:44:43;12.40;99.90
25092;DHT22;13082;52.374;4.946;2023-03-21T13:47:41;12.40;99.90
25092;DHT22;13082;52.374;4.946;2023-03-21T13:52:41;12.50;99.90
25092;DHT22;13082;52.374;4.946;2023-03-21T13:55:19;12.50;99.90
25092;DHT22;13082;52.374;4.946;2023-03-21T13:57:47;12.40;99.90
25092;DHT22;13082;52.374;4.946;2023-03-21T14:02:52;12.40;99.90
25092;DHT22;13082;52.374;4.946;2023-03-21T14:05:23;12.40;99.90
25092;DHT22;13082;52.374;4.946;2023-03-21T14:08:02;12.40;99.90
25092;DHT22;13082;52.374;4.946;2023-03-21T14:10:42;12.40;99.90
25092;DHT22;13082;52.374;4.946;2023-03-21T14:13:12;12.50;99.90
25092;DHT22;13082;52.374;4.946;2023-03-21T14:15:45;12.50;99.90
25092;DHT22;13082;52.374;4.946;2023-03-21T14:18:18;12.50;99.90
25092;DHT22;13082;52.374;4.946;2023-03-21T14:20:44;12.40;99.90
25092;DHT22;13082;52.374;4.946;2023-03-21T14:23:15;12.40;99.90
25092;DHT22;13082;52.374;4.946;2023-03-21T14:25:42;12.40;99.90
25092;DHT22;13082;52.374;4.946;2023-03-21T14:28:25;12.40;99.90
25092;DHT22;13082;52.374;4.946;2023-03-21T14:30:58;12.40;99.90
25092;DHT22;13082;52.374;4.946;2023-03-21T14:35:57;12.30;99.90
25092;DHT22;13082;52.374;4.946;2023-03-21T14:38:26;12.20;99.90
25092;DHT22;13082;52.374;4.946;2023-03-21T14:40:54;12.30;99.90
25092;DHT22;13082;52.374;4.946;2023-03-21T14:43:22;12.20;99.90
25092;DHT22;13082;52.374;4.946;2023-03-21T14:45:50;12.20;99.90
25092;DHT22;13082;52.374;4.946;2023-03-21T14:48:17;12.30;99.90
25092;DHT22;13082;52.374;4.946;2023-03-21T14:50:52;12.30;99.90
25092;DHT22;13082;52.374;4.946;2023-03-21T14:53:21;12.40;99.90
25092;DHT22;13082;52.374;4.946;2023-03-21T14:58:36;12.30;99.90
25092;DHT22;13082;52.374;4.946;2023-03-21T15:01:05;12.20;99.90
25092;DHT22;13082;52.374;4.946;2023-03-21T15:03:32;12.20;99.90
25092;DHT22;13082;52.374;4.946;2023-03-21T15:05:58;12.20;99.90
25092;DHT22;13082;52.374;4.946;2023-03-21T15:08:26;12.20;99.90
25092;DHT22;13082;52.374;4.946;2023-03-21T15:10:59;12.10;99.90
25092;DHT22;13082;52.374;4.946;2023-03-21T15:13:28;12.20;99.90
25092;DHT22;13082;52.374;4.946;2023-03-21T15:15:55;12.20;99.90
25092;DHT22;13082;52.374;4.946;2023-03-21T15:18:27;12.20;99.90
25092;DHT22;13082;52.374;4.946;2023-03-21T15:20:55;12.10;99.90
25092;DHT22;13082;52.374;4.946;2023-03-21T15:23:30;12.10;99.90
25092;DHT22;13082;52.374;4.946;2023-03-21T15:25:57;12.10;99.90
25092;DHT22;13082;52.374;4.946;2023-03-21T15:28:26;12.10;99.90
25092;DHT22;13082;52.374;4.946;2023-03-21T15:30:52;12.10;99.90
25092;DHT22;13082;52.374;4.946;2023-03-21T15:33:18;12.10;99.90
25092;DHT22;13082;52.374;4.946;2023-03-21T15:35:50;12.10;99.90
25092;DHT22;13082;52.374;4.946;2023-03-21T15:38:27;12.00;99.90
25092;DHT22;13082;52.374;4.946;2023-03-21T15:41:32;12.00;99.90
25092;DHT22;13082;52.374;4.946;2023-03-21T15:46:44;11.80;99.90
25092;DHT22;13082;52.374;4.946;2023-03-21T15:49:31;11.70;99.90
25092;DHT22;13082;52.374;4.946;2023-03-21T15:52:12;11.70;99.90
25092;DHT22;13082;52.374;4.946;2023-03-21T15:54:49;11.70;99.90
25092;DHT22;13082;52.374;4.946;2023-03-21T15:57:25;11.70;99.90
25092;DHT22;13082;52.374;4.946;2023-03-21T15:59:57;11.70;99.90
25092;DHT22;13082;52.374;4.946;2023-03-21T16:02:28;11.70;99.90
25092;DHT22;13082;52.374;4.946;2023-03-21T16:07:24;11.70;99.90
25092;DHT22;13082;52.374;4.946;2023-03-21T16:09:49;11.80;99.90
25092;DHT22;13082;52.374;4.946;2023-03-21T16:12:21;11.80;99.90
25092;DHT22;13082;52.374;4.946;2023-03-21T16:14:49;11.80;99.90
25092;DHT22;13082;52.374;4.946;2023-03-21T16:17:34;11.90;99.90
25092;DHT22;13082;52.374;4.946;2023-03-21T16:20:20;11.90;99.90
25092;DHT22;13082;52.374;4.946;2023-03-21T16:22:46;12.00;99.90
25092;DHT22;13082;52.374;4.946;2023-03-21T16:25:12;12.00;99.90
25092;DHT22;13082;52.374;4.946;2023-03-21T16:27:38;12.00;99.90
25092;DHT22;13082;52.374;4.946;2023-03-21T16:30:04;12.00;99.90
25092;DHT22;13082;52.374;4.946;2023-03-21T16:32:31;12.10;99.90
25092;DHT22;13082;52.374;4.946;2023-03-21T16:34:57;12.10;99.90
25092;DHT22;13082;52.374;4.946;2023-03-21T16:37:22;12.10;99.90
25092;DHT22;13082;52.374;4.946;2023-03-21T16:39:48;12.10;99.90
25092;DHT22;13082;52.374;4.946;2023-03-21T16:42:13;12.10;99.90
25092;DHT22;13082;52.374;4.946;2023-03-21T16:44:39;12.10;99.90
25092;DHT22;13082;52.374;4.946;2023-03-21T16:47:16;12.10;99.90
25092;DHT22;13082;52.374;4.946;2023-03-21T16:49:43;12.20;99.90
25092;DHT22;13082;52.374;4.946;2023-03-21T16:52:10;12.20;99.90
25092;DHT22;13082;52.374;4.946;2023-03-21T16:54:37;12.20;99.90
25092;DHT22;13082;52.374;4.946;2023-03-21T16:57:08;12.20;99.90
25092;DHT22;13082;52.374;4.946;2023-03-21T16:59:41;12.20;99.90
25092;DHT22;13082;52.374;4.946;2023-03-21T17:02:14;12.10;99.90
25092;DHT22;13082;52.374;4.946;2023-03-21T17:04:43;12.10;99.90
25092;DHT22;13082;52.374;4.946;2023-03-21T17:07:11;12.10;99.90
25092;DHT22;13082;52.374;4.946;2023-03-21T17:09:41;12.20;99.90
25092;DHT22;13082;52.374;4.946;2023-03-21T17:12:13;12.20;99.90
25092;DHT22;13082;52.374;4.946;2023-03-21T17:14:41;12.20;99.90
25092;DHT22;13082;52.374;4.946;2023-03-21T17:17:15;12.20;99.90
25092;DHT22;13082;52.374;4.946;2023-03-21T17:19:41;12.20;99.90
25092;DHT22;13082;52.374;4.946;2023-03-21T17:22:08;12.20;99.90
25092;DHT22;13082;52.374;4.946;2023-03-21T17:24:34;12.20;99.90
25092;DHT22;13082;52.374;4.946;2023-03-21T17:27:02;12.20;99.90
25092;DHT22;13082;52.374;4.946;2023-03-21T17:29:27;12.20;99.90
25092;DHT22;13082;52.374;4.946;2023-03-21T17:31:53;12.20;99.90
25092;DHT22;13082;52.374;4.946;2023-03-21T17:34:19;12.20;99.90
25092;DHT22;13082;52.374;4.946;2023-03-21T17:36:45;12.10;99.90